Time;durP1;ratioP1;P1;durP2;ratioP2;P2;SDS_P1;SDS_P2;PMS_P1;PMS_P2;Temp;Humidity;BMP_temperature;BMP_pressure;BME280_temperature;BME280_humidity;BME280_pressure;Samples;Min_cycle;Max_cycle;Signal;HPM_P1;HPM_P2
2022/07/06 00:01:51;;;;;;;6.20;3.00;;;;;;;23.49;nan;-24469.03;4937494;28;20321;-59
2022/07/06 00:04:18;;;;;;;4.50;3.10;;;;;;;23.45;nan;-24467.78;4942027;28;20184;-60
2022/07/06 00:06:43;;;;;;;3.65;2.80;;;;;;;23.16;nan;-24460.06;4942738;28;20217;-58
2022/07/06 00:09:09;;;;;;;5.15;3.30;;;;;;;23.32;nan;-24464.47;4940675;28;20664;-59
2022/07/06 00:11:35;;;;;;;5.82;3.50;;;;;;;23.33;nan;-24464.63;4941862;28;20189;-60
2022/07/06 00:14:00;;;;;;;6.38;3.95;;;;;;;23.15;nan;-24459.66;4945209;28;20190;-59
2022/07/06 00:16:26;;;;;;;5.45;3.67;;;;;;;23.29;nan;-24463.50;4948191;28;20189;-60
2022/07/06 00:18:52;;;;;;;6.80;4.50;;;;;;;22.59;nan;-24444.31;4940336;28;20229;-59
2022/07/06 00:21:17;;;;;;;6.25;4.50;;;;;;;22.97;nan;-24454.66;4939172;28;20204;-60
2022/07/06 00:23:43;;;;;;;6.57;4.32;;;;;;;22.98;nan;-24454.94;4932024;28;20276;-59
2022/07/06 00:26:09;;;;;;;6.78;4.55;;;;;;;23.01;nan;-24455.78;4937040;28;20209;-59
2022/07/06 00:28:34;;;;;;;5.75;4.15;;;;;;;22.62;nan;-24445.25;4941937;28;20197;-59
2022/07/06 00:31:00;;;;;;;5.82;4.00;;;;;;;22.73;nan;-24448.19;4935482;28;20225;-59
2022/07/06 00:33:25;;;;;;;6.20;4.30;;;;;;;22.75;nan;-24448.72;4940500;28;20288;-59
2022/07/06 00:35:51;;;;;;;5.45;3.85;;;;;;;22.37;nan;-24438.50;4932538;28;20689;-60
2022/07/06 00:38:16;;;;;;;6.20;4.15;;;;;;;22.61;nan;-24445.00;4927553;28;20217;-59
2022/07/06 00:40:42;;;;;;;6.85;3.97;;;;;;;22.43;nan;-24440.00;4928050;28;20669;-59
2022/07/06 00:43:07;;;;;;;6.00;4.28;;;;;;;22.45;nan;-24440.56;4933204;28;20541;-59
2022/07/06 00:45:33;;;;;;;5.75;3.65;;;;;;;18.63;nan;-24335.63;4935758;28;20197;-60
2022/07/06 00:47:59;;;;;;;5.97;4.22;;;;;;;22.76;nan;-24449.16;4938077;28;20584;-59
2022/07/06 00:50:25;;;;;;;7.10;4.40;;;;;;;22.52;nan;-24442.38;4932050;28;20767;-59
2022/07/06 00:52:55;;;;;;;6.88;4.63;;;;;;;22.43;nan;-24440.16;4933353;28;20288;-60
2022/07/06 00:55:26;;;;;;;6.45;4.20;;;;;;;22.66;nan;-24446.25;4946544;28;20264;-60
2022/07/06 00:57:52;;;;;;;8.68;4.55;;;;;;;22.68;nan;-24446.94;4939520;28;20561;-60
2022/07/06 01:00:21;;;;;;;6.45;4.53;;;;;;;22.53;nan;-24442.78;4952944;28;20189;-60
2022/07/06 01:02:47;;;;;;;6.10;4.50;;;;;;;22.36;nan;-24438.06;4949613;28;20197;-59
2022/07/06 01:05:14;;;;;;;7.53;4.55;;;;;;;22.53;nan;-24442.78;4945215;28;20231;-59
2022/07/06 01:07:42;;;;;;;8.20;4.85;;;;;;;22.41;nan;-24439.59;4949096;28;20240;-60
2022/07/06 01:10:09;;;;;;;9.40;4.63;;;;;;;22.32;nan;-24437.09;4942298;28;20228;-60
2022/07/06 01:12:36;;;;;;;7.80;4.57;;;;;;;22.27;nan;-24435.72;4938230;28;20225;-60
2022/07/06 01:15:07;;;;;;;6.57;4.40;;;;;;;21.98;nan;-24427.84;4936709;28;20755;-60
2022/07/06 01:17:33;;;;;;;7.10;4.53;;;;;;;22.23;nan;-24434.63;4944992;28;20668;-58
2022/07/06 01:20:19;;;;;;;8.57;4.35;;;;;;;22.11;nan;-24431.16;4938873;28;20252;-58
2022/07/06 01:22:47;;;;;;;6.05;4.40;;;;;;;22.04;nan;-24429.34;4943420;28;20323;-60
2022/07/06 01:25:13;;;;;;;6.30;4.70;;;;;;;22.12;nan;-24431.56;4941660;28;20197;-59
2022/07/06 01:27:40;;;;;;;10.00;4.80;;;;;;;22.07;nan;-24430.03;4938700;28;20249;-59
2022/07/06 01:30:07;;;;;;;7.07;4.55;;;;;;;22.22;nan;-24434.19;4938139;28;20186;-59
2022/07/06 01:32:32;;;;;;;7.18;5.13;;;;;;;22.19;nan;-24433.50;4932061;28;20185;-59
2022/07/06 01:34:58;;;;;;;6.82;4.40;;;;;;;22.05;nan;-24429.50;4932427;28;20178;-59
2022/07/06 01:37:23;;;;;;;6.90;4.72;;;;;;;22.20;nan;-24433.66;4940501;28;20204;-58
2022/07/06 01:39:49;;;;;;;7.38;5.30;;;;;;;22.06;nan;-24429.91;4938659;28;20232;-59
2022/07/06 01:42:14;;;;;;;6.72;4.32;;;;;;;21.73;nan;-24420.91;4941026;28;22026;-59
2022/07/06 01:44:40;;;;;;;5.68;4.10;;;;;;;22.01;nan;-24428.66;4943011;28;20201;-59
2022/07/06 01:47:05;;;;;;;5.35;3.72;;;;;;;22.03;nan;-24429.22;4940404;28;20232;-59
2022/07/06 01:49:31;;;;;;;8.27;4.40;;;;;;;21.73;nan;-24420.91;4943364;28;21105;-59
2022/07/06 01:51:56;;;;;;;6.15;4.40;;;;;;;21.66;nan;-24418.97;4938570;28;20256;-59
2022/07/06 01:54:21;;;;;;;7.70;4.82;;;;;;;21.48;nan;-24414.13;4933017;28;20232;-59
2022/07/06 01:56:47;;;;;;;6.70;4.65;;;;;;;21.42;nan;-24412.31;4932854;28;20185;-59
2022/07/06 01:59:12;;;;;;;6.63;4.30;;;;;;;21.54;nan;-24415.66;4929986;28;20184;-59
2022/07/06 02:01:38;;;;;;;8.32;4.00;;;;;;;22.16;nan;-24432.53;4940045;28;20186;-60
2022/07/06 02:04:03;;;;;;;6.22;3.90;;;;;;;21.71;nan;-24420.34;4943127;28;20679;-60
2022/07/06 02:06:29;;;;;;;6.82;4.03;;;;;;;21.60;nan;-24417.31;4942152;28;20220;-61
2022/07/06 02:08:54;;;;;;;6.75;4.25;;;;;;;21.72;nan;-24420.50;4946270;28;20189;-59
2022/07/06 02:11:20;;;;;;;7.55;4.50;;;;;;;21.74;nan;-24421.19;4939127;28;20202;-58
2022/07/06 02:13:45;;;;;;;11.45;5.50;;;;;;;21.68;nan;-24419.53;4938481;28;20252;-60
2022/07/06 02:16:11;;;;;;;9.90;5.88;;;;;;;21.70;nan;-24420.06;4943973;28;20194;-58
2022/07/06 02:18:37;;;;;;;9.52;5.03;;;;;;;21.41;nan;-24412.19;4949408;28;20188;-59
2022/07/06 02:21:04;;;;;;;9.27;5.35;;;;;;;21.72;nan;-24420.63;4946680;28;20190;-59
2022/07/06 02:23:30;;;;;;;7.18;4.65;;;;;;;21.76;nan;-24421.59;4931821;28;20215;-58
2022/07/06 02:25:55;;;;;;;7.32;4.28;;;;;;;22.06;nan;-24429.78;4929199;28;20210;-60
2022/07/06 02:28:21;;;;;;;7.70;4.93;;;;;;;21.58;nan;-24416.88;4939978;28;20438;-59
2022/07/06 02:30:46;;;;;;;10.23;5.38;;;;;;;21.80;nan;-24422.72;4934544;28;20641;-60
2022/07/06 02:33:12;;;;;;;7.90;4.82;;;;;;;21.81;nan;-24423.13;4939268;28;20181;-60
2022/07/06 02:35:41;;;;;;;11.48;5.35;;;;;;;21.63;nan;-24418.00;4944147;28;20174;-59
2022/07/06 02:38:07;;;;;;;10.85;6.30;;;;;;;22.03;nan;-24429.22;4944642;28;20179;-59
2022/07/06 02:40:33;;;;;;;13.07;6.25;;;;;;;21.58;nan;-24416.75;4946680;28;20178;-60
2022/07/06 02:42:58;;;;;;;10.23;6.13;;;;;;;22.08;nan;-24430.31;4947348;28;20212;-59
2022/07/06 02:45:24;;;;;;;10.95;6.32;;;;;;;21.71;nan;-24420.22;4950883;28;20684;-59
2022/07/06 02:47:50;;;;;;;12.52;6.28;;;;;;;21.84;nan;-24423.94;4949637;28;20209;-60
2022/07/06 02:50:17;;;;;;;9.55;4.93;;;;;;;21.77;nan;-24421.88;4936485;28;20213;-61
2022/07/06 02:52:42;;;;;;;8.30;4.90;;;;;;;21.40;nan;-24411.75;4947983;28;20280;-62
2022/07/06 02:55:09;;;;;;;11.30;4.95;;;;;;;21.71;nan;-24420.34;4951763;28;20201;-61
2022/07/06 02:57:36;;;;;;;6.65;4.47;;;;;;;21.67;nan;-24419.09;4946681;28;20216;-60
2022/07/06 03:00:01;;;;;;;7.93;5.00;;;;;;;21.32;nan;-24409.53;4938408;28;20193;-60
2022/07/06 03:02:28;;;;;;;10.63;4.90;;;;;;;21.64;nan;-24418.28;4942842;28;20205;-61
2022/07/06 03:04:54;;;;;;;7.13;4.93;;;;;;;21.87;nan;-24424.78;4933569;28;20315;-61
2022/07/06 03:07:20;;;;;;;7.25;4.43;;;;;;;21.74;nan;-24421.19;4942383;28;21177;-60
2022/07/06 03:09:46;;;;;;;9.65;4.68;;;;;;;22.12;nan;-24431.56;4947253;28;20182;-59
2022/07/06 03:12:12;;;;;;;8.43;5.10;;;;;;;22.24;nan;-24434.75;4941209;28;20281;-60
2022/07/06 03:14:38;;;;;;;8.77;5.07;;;;;;;22.59;nan;-24444.31;4953004;28;20619;-59
2022/07/06 03:17:05;;;;;;;7.47;4.40;;;;;;;23.00;nan;-24455.63;4937514;28;20926;-60
2022/07/06 03:19:30;;;;;;;9.05;5.00;;;;;;;23.25;nan;-24462.41;4932786;28;21787;-59
2022/07/06 03:21:56;;;;;;;6.20;4.45;;;;;;;23.85;nan;-24478.69;4946439;28;21670;-59
2022/07/06 03:24:21;;;;;;;9.13;4.53;;;;;;;24.41;nan;-24494.16;4946692;28;20759;-60
2022/07/06 03:26:47;;;;;;;8.05;4.72;;;;;;;24.28;nan;-24490.56;4942657;28;20285;-58
2022/07/06 03:29:12;;;;;;;8.52;5.10;;;;;;;25.06;nan;-24511.78;4946967;28;20210;-59
2022/07/06 03:31:38;;;;;;;11.13;5.13;;;;;;;25.41;nan;-24521.41;4947477;28;20323;-60
2022/07/06 03:34:03;;;;;;;7.32;4.78;;;;;;;25.80;nan;-24532.00;4942563;28;20625;-60
2022/07/06 03:36:29;;;;;;;7.00;4.45;;;;;;;26.45;nan;-24549.59;4941107;28;20845;-60
2022/07/06 03:38:54;;;;;;;7.35;4.90;;;;;;;26.67;nan;-24555.66;4944362;28;20277;-60
2022/07/06 03:41:20;;;;;;;6.53;4.18;;;;;;;26.88;nan;-24561.13;4948783;28;20221;-59
2022/07/06 03:43:45;;;;;;;9.05;5.28;;;;;;;26.97;nan;-24563.75;4943217;28;20186;-59
2022/07/06 03:46:10;;;;;;;7.05;4.30;;;;;;;27.63;nan;-24581.56;4943360;28;20618;-59
2022/07/06 03:48:36;;;;;;;6.65;4.22;;;;;;;28.25;nan;-24598.28;4944294;28;20177;-59
2022/07/06 03:51:02;;;;;;;5.72;4.28;;;;;;;28.85;nan;-24614.69;4936407;28;20193;-59
2022/07/06 03:53:27;;;;;;;5.70;3.95;;;;;;;28.77;nan;-24612.38;4924692;28;20195;-60
2022/07/06 03:58:37;;;;;;;7.22;4.85;;;;;;;28.92;nan;-24616.47;4938358;28;20216;-61
2022/07/06 04:01:02;;;;;;;7.32;4.30;;;;;;;29.02;nan;-24619.19;4933645;28;20186;-61
2022/07/06 04:03:28;;;;;;;5.82;4.32;;;;;;;29.25;nan;-24625.47;4934447;28;20194;-61
2022/07/06 04:05:53;;;;;;;6.18;4.32;;;;;;;26.73;nan;-24557.28;4924327;28;20759;-59
2022/07/06 04:08:19;;;;;;;8.43;3.95;;;;;;;27.05;nan;-24565.94;4926667;28;20185;-59
2022/07/06 04:10:45;;;;;;;9.30;4.65;;;;;;;24.05;nan;-24484.22;4926846;28;20653;-59
2022/07/06 04:13:11;;;;;;;6.53;4.47;;;;;;;26.02;nan;-24537.78;4929307;28;20209;-61
2022/07/06 04:15:36;;;;;;;8.43;5.00;;;;;;;26.04;nan;-24538.47;4931038;28;20181;-60
2022/07/06 04:18:02;;;;;;;7.28;4.70;;;;;;;25.94;nan;-24535.72;4945954;28;20190;-59
2022/07/06 04:20:27;;;;;;;7.35;5.47;;;;;;;25.87;nan;-24533.81;4945129;28;20301;-60
2022/07/06 04:22:53;;;;;;;8.10;5.00;;;;;;;25.61;nan;-24526.78;4944497;28;20680;-60
2022/07/06 04:25:18;;;;;;;6.55;4.95;;;;;;;25.86;nan;-24533.53;4934432;28;20178;-59
2022/07/06 04:27:44;;;;;;;7.32;4.85;;;;;;;26.65;nan;-24554.97;4931065;28;20680;-59
2022/07/06 04:30:11;;;;;;;8.23;5.43;;;;;;;26.79;nan;-24558.94;4936165;28;20191;-60
2022/07/06 04:32:37;;;;;;;8.38;5.50;;;;;;;26.73;nan;-24557.16;4940541;28;20269;-59
2022/07/06 04:35:04;;;;;;;9.07;5.30;;;;;;;26.23;nan;-24543.56;4942685;28;20208;-60
2022/07/06 04:37:29;;;;;;;11.07;5.93;;;;;;;26.53;nan;-24551.66;4943698;28;20194;-60
2022/07/06 04:39:55;;;;;;;9.05;5.70;;;;;;;26.36;nan;-24547.28;4957685;28;20575;-60
2022/07/06 04:42:20;;;;;;;9.57;5.78;;;;;;;26.77;nan;-24558.38;4940901;28;21517;-60
2022/07/06 04:44:45;;;;;;;8.65;5.05;;;;;;;27.09;nan;-24567.03;4941490;28;20177;-60
2022/07/06 04:47:14;;;;;;;8.23;5.38;;;;;;;26.83;nan;-24560.03;4942054;28;20209;-60
2022/07/06 04:49:40;;;;;;;9.52;5.38;;;;;;;27.04;nan;-24565.66;4939398;28;20189;-60
2022/07/06 04:52:06;;;;;;;7.95;5.13;;;;;;;26.98;nan;-24563.88;4939552;28;20200;-60
2022/07/06 04:54:31;;;;;;;10.55;5.80;;;;;;;26.90;nan;-24561.69;4937081;28;20189;-60
2022/07/06 04:56:57;;;;;;;8.43;5.75;;;;;;;26.58;nan;-24553.19;4937082;28;20185;-60
2022/07/06 04:59:23;;;;;;;12.52;6.00;;;;;;;26.57;nan;-24552.75;4941025;28;21038;-60
2022/07/06 05:01:48;;;;;;;12.63;5.65;;;;;;;26.42;nan;-24548.63;4933722;28;20589;-60
2022/07/06 05:04:14;;;;;;;11.80;5.78;;;;;;;26.21;nan;-24543.00;4937912;28;20181;-60
2022/07/06 05:06:40;;;;;;;8.07;4.88;;;;;;;26.57;nan;-24552.75;4932969;28;20486;-60
2022/07/06 05:09:06;;;;;;;6.55;4.68;;;;;;;26.76;nan;-24557.97;4930463;28;20281;-60
2022/07/06 05:11:31;;;;;;;10.90;5.65;;;;;;;26.81;nan;-24559.34;4938440;28;20193;-60
2022/07/06 05:13:57;;;;;;;8.43;4.72;;;;;;;26.65;nan;-24554.97;4933130;28;20605;-59
2022/07/06 05:16:23;;;;;;;8.23;4.90;;;;;;;26.48;nan;-24550.28;4943058;28;20257;-60
2022/07/06 05:18:49;;;;;;;6.85;4.80;;;;;;;24.37;nan;-24492.91;4935224;28;20269;-59
2022/07/06 05:21:15;;;;;;;7.30;5.07;;;;;;;25.93;nan;-24535.44;4934525;28;20285;-59
2022/07/06 05:23:40;;;;;;;9.80;5.20;;;;;;;26.08;nan;-24539.44;4943549;28;20217;-59
2022/07/06 05:26:06;;;;;;;7.35;5.25;;;;;;;26.26;nan;-24544.38;4937257;28;20205;-59
2022/07/06 05:28:32;;;;;;;8.25;5.05;;;;;;;26.48;nan;-24550.44;4942980;28;20731;-59
2022/07/06 05:30:57;;;;;;;7.72;4.75;;;;;;;26.40;nan;-24548.22;4938855;28;20186;-60
2022/07/06 05:33:22;;;;;;;7.82;5.05;;;;;;;26.23;nan;-24543.69;4940905;28;20920;-59
2022/07/06 05:35:48;;;;;;;11.00;5.35;;;;;;;26.91;nan;-24562.09;4944154;28;20661;-60
2022/07/06 05:38:13;;;;;;;7.82;5.03;;;;;;;27.36;nan;-24574.16;4937823;28;20218;-59
2022/07/06 05:40:39;;;;;;;7.57;5.30;;;;;;;27.67;nan;-24582.66;4947349;28;20178;-60
2022/07/06 05:43:05;;;;;;;7.07;5.03;;;;;;;27.77;nan;-24585.41;4939283;28;20186;-60
2022/07/06 05:45:30;;;;;;;7.25;5.10;;;;;;;28.08;nan;-24593.88;4937806;28;20194;-61
2022/07/06 05:50:40;;;;;;;8.43;5.38;;;;;;;27.52;nan;-24578.56;4951772;28;20292;-68
2022/07/06 05:53:06;;;;;;;6.63;4.70;;;;;;;27.00;nan;-24564.56;4952121;28;20647;-67
2022/07/06 05:55:32;;;;;;;9.25;5.30;;;;;;;26.60;nan;-24553.72;4949389;28;20634;-68
2022/07/06 05:57:58;;;;;;;9.68;5.15;;;;;;;26.78;nan;-24558.66;4949846;28;20757;-67
2022/07/06 06:00:25;;;;;;;7.85;5.07;;;;;;;26.69;nan;-24556.06;4949150;28;20189;-68
2022/07/06 06:02:51;;;;;;;6.95;4.78;;;;;;;26.79;nan;-24558.78;4949274;28;20181;-67
2022/07/06 06:05:17;;;;;;;9.15;5.20;;;;;;;26.62;nan;-24554.28;4948048;28;21553;-68
2022/07/06 06:07:43;;;;;;;8.27;5.03;;;;;;;27.24;nan;-24571.00;4937967;28;20217;-70
2022/07/06 06:10:11;;;;;;;8.63;5.57;;;;;;;27.03;nan;-24565.38;4946725;28;20194;-67
2022/07/06 06:12:37;;;;;;;7.40;5.22;;;;;;;27.30;nan;-24572.66;4947361;28;20178;-68
2022/07/06 06:15:04;;;;;;;8.45;5.60;;;;;;;27.27;nan;-24571.69;4944419;28;20201;-68
2022/07/06 06:17:29;;;;;;;8.32;5.65;;;;;;;27.35;nan;-24573.88;4952949;28;20677;-68
2022/07/06 06:19:55;;;;;;;8.30;6.00;;;;;;;27.11;nan;-24567.44;4946278;28;20217;-68
2022/07/06 06:22:20;;;;;;;8.65;6.15;;;;;;;27.37;nan;-24574.56;4952743;28;20264;-68
2022/07/06 06:24:46;;;;;;;9.38;5.60;;;;;;;27.05;nan;-24565.94;4945605;28;20181;-68
2022/07/06 06:27:11;;;;;;;9.77;5.97;;;;;;;27.10;nan;-24567.31;4950056;28;20201;-68
2022/07/06 06:29:37;;;;;;;7.82;5.63;;;;;;;27.31;nan;-24572.94;4950068;28;20186;-68
2022/07/06 06:32:03;;;;;;;7.45;5.15;;;;;;;27.56;nan;-24579.78;4947983;28;20642;-68
2022/07/06 06:34:28;;;;;;;11.55;5.32;;;;;;;28.03;nan;-24592.38;4948538;28;20208;-68
2022/07/06 06:36:54;;;;;;;7.63;5.10;;;;;;;27.74;nan;-24584.44;4948470;28;20274;-68
2022/07/06 06:39:19;;;;;;;9.55;5.20;;;;;;;28.31;nan;-24599.91;4945345;28;20577;-68
2022/07/06 06:41:44;;;;;;;7.22;5.25;;;;;;;28.48;nan;-24604.56;4949629;28;20640;-68
2022/07/06 06:44:10;;;;;;;7.85;5.30;;;;;;;28.62;nan;-24608.25;4952616;28;20579;-68
2022/07/06 06:46:35;;;;;;;8.88;5.50;;;;;;;28.36;nan;-24601.28;4947334;28;20202;-68
2022/07/06 06:49:01;;;;;;;7.63;5.85;;;;;;;28.25;nan;-24598.41;4946712;28;20185;-68
2022/07/06 06:51:26;;;;;;;10.90;5.95;;;;;;;28.16;nan;-24595.81;4963141;28;20197;-68
2022/07/06 06:53:52;;;;;;;8.13;5.57;;;;;;;27.94;nan;-24589.91;4950834;28;20181;-68
2022/07/06 06:56:17;;;;;;;7.35;5.32;;;;;;;27.89;nan;-24588.69;4952829;28;20178;-68
2022/07/06 06:58:43;;;;;;;7.82;5.70;;;;;;;28.58;nan;-24607.28;4947885;28;20189;-68
2022/07/06 07:01:09;;;;;;;9.13;6.00;;;;;;;28.47;nan;-24604.28;4946046;28;20740;-68
2022/07/06 07:03:35;;;;;;;8.85;5.78;;;;;;;28.46;nan;-24604.16;4941716;28;20182;-68
2022/07/06 07:06:00;;;;;;;8.57;6.25;;;;;;;28.53;nan;-24606.06;4942727;28;20200;-67
2022/07/06 07:08:26;;;;;;;8.63;5.85;;;;;;;28.67;nan;-24609.63;4949416;28;20193;-68
2022/07/06 07:10:51;;;;;;;9.48;6.03;;;;;;;28.47;nan;-24604.28;4943085;28;20201;-68
2022/07/06 07:13:17;;;;;;;8.50;5.68;;;;;;;28.72;nan;-24611.13;4942541;28;20191;-68
2022/07/06 07:15:42;;;;;;;8.18;5.80;;;;;;;28.93;nan;-24616.88;4936014;28;20887;-68
2022/07/06 07:18:08;;;;;;;9.93;5.85;;;;;;;29.18;nan;-24623.56;4940643;28;20546;-69
2022/07/06 07:20:34;;;;;;;14.65;6.97;;;;;;;28.92;nan;-24616.59;4941038;28;20256;-69
2022/07/06 07:23:00;;;;;;;10.18;6.07;;;;;;;27.98;nan;-24591.16;4945347;28;20190;-67
2022/07/06 07:25:27;;;;;;;8.23;5.90;;;;;;;28.38;nan;-24601.97;4940666;28;20197;-67
2022/07/06 07:27:53;;;;;;;11.93;5.68;;;;;;;28.48;nan;-24604.56;4946984;28;20220;-67
2022/07/06 07:30:19;;;;;;;10.68;6.32;;;;;;;28.73;nan;-24611.41;4940160;28;21830;-67
2022/07/06 07:32:44;;;;;;;9.30;5.93;;;;;;;28.77;nan;-24612.38;4945239;28;20197;-67
2022/07/06 07:35:11;;;;;;;8.27;5.90;;;;;;;28.71;nan;-24610.72;4941381;28;20213;-67
2022/07/06 07:37:36;;;;;;;11.73;6.65;;;;;;;28.39;nan;-24602.09;4948989;28;20240;-67
2022/07/06 07:40:04;;;;;;;10.73;6.43;;;;;;;28.86;nan;-24614.97;4950366;28;20247;-67
2022/07/06 07:42:29;;;;;;;9.43;6.32;;;;;;;28.66;nan;-24609.34;4947408;28;20610;-67
2022/07/06 07:44:55;;;;;;;9.40;6.10;;;;;;;28.42;nan;-24602.94;4942494;28;20195;-67
2022/07/06 07:47:20;;;;;;;9.75;6.63;;;;;;;29.19;nan;-24623.69;4937234;28;20210;-68
2022/07/06 07:49:46;;;;;;;9.82;6.03;;;;;;;28.81;nan;-24613.59;4937550;28;20190;-68
2022/07/06 07:52:11;;;;;;;8.65;5.90;;;;;;;28.50;nan;-24605.13;4941267;28;20539;-68
2022/07/06 07:54:37;;;;;;;10.80;6.05;;;;;;;28.40;nan;-24602.38;4934163;28;20273;-68
2022/07/06 07:57:03;;;;;;;9.70;6.38;;;;;;;28.09;nan;-24594.03;4952994;28;21347;-68
2022/07/06 07:59:28;;;;;;;9.95;6.00;;;;;;;27.80;nan;-24586.09;4927364;28;21794;-68
2022/07/06 08:01:54;;;;;;;9.77;6.72;;;;;;;28.22;nan;-24597.44;4949062;28;20186;-68
2022/07/06 08:04:21;;;;;;;10.10;6.35;;;;;;;27.79;nan;-24585.81;4939065;28;20192;-68
2022/07/06 08:06:46;;;;;;;10.15;6.65;;;;;;;28.88;nan;-24615.50;4939370;28;20233;-68
2022/07/06 08:09:12;;;;;;;10.30;6.30;;;;;;;28.73;nan;-24611.41;4949665;28;20922;-68
2022/07/06 08:11:37;;;;;;;8.70;5.75;;;;;;;29.10;nan;-24621.38;4954469;28;21496;-68
2022/07/06 08:14:03;;;;;;;9.57;6.07;;;;;;;28.87;nan;-24615.22;4956211;28;20200;-68
2022/07/06 08:16:29;;;;;;;9.27;6.13;;;;;;;29.45;nan;-24630.81;4948053;28;20208;-68
2022/07/06 08:18:54;;;;;;;10.02;6.20;;;;;;;29.18;nan;-24623.56;4951700;28;22088;-68
2022/07/06 08:21:20;;;;;;;9.85;5.93;;;;;;;28.55;nan;-24606.47;4947780;28;20346;-68
2022/07/06 08:23:45;;;;;;;10.73;6.35;;;;;;;28.81;nan;-24613.59;4953814;28;20265;-68
2022/07/06 08:26:11;;;;;;;10.52;6.40;;;;;;;28.78;nan;-24612.63;4947372;28;20186;-68
2022/07/06 08:28:36;;;;;;;9.63;5.78;;;;;;;29.17;nan;-24623.28;4942381;28;20186;-68
2022/07/06 08:31:03;;;;;;;9.13;6.25;;;;;;;29.48;nan;-24631.50;4950942;28;20667;-68
2022/07/06 08:33:29;;;;;;;9.70;6.22;;;;;;;29.68;nan;-24637.09;4934212;28;20182;-68
2022/07/06 08:35:54;;;;;;;9.60;5.93;;;;;;;29.91;nan;-24643.09;4932508;28;20197;-68
2022/07/06 08:38:20;;;;;;;8.68;6.15;;;;;;;29.77;nan;-24639.53;4946771;28;21387;-68
2022/07/06 08:40:48;;;;;;;9.43;6.32;;;;;;;29.71;nan;-24637.91;4945216;28;20644;-68
2022/07/06 08:43:15;;;;;;;8.40;5.88;;;;;;;29.68;nan;-24636.94;4943980;28;20182;-68
2022/07/06 08:45:43;;;;;;;8.70;6.10;;;;;;;30.32;nan;-24654.13;4940821;28;20211;-68
2022/07/06 08:48:10;;;;;;;7.93;5.53;;;;;;;29.70;nan;-24637.63;4939814;28;20256;-68
2022/07/06 08:50:36;;;;;;;10.90;6.30;;;;;;;29.49;nan;-24631.75;4947189;28;20247;-68
2022/07/06 08:53:02;;;;;;;8.27;5.70;;;;;;;29.24;nan;-24625.06;4945420;28;20216;-68
2022/07/06 08:55:28;;;;;;;8.88;6.18;;;;;;;29.26;nan;-24625.63;4938902;28;20300;-68
2022/07/06 08:57:57;;;;;;;11.40;6.60;;;;;;;28.96;nan;-24617.56;4944931;28;20288;-68
2022/07/06 09:00:24;;;;;;;13.48;6.53;;;;;;;29.79;nan;-24639.94;4947989;28;20641;-68
2022/07/06 09:02:50;;;;;;;8.40;6.15;;;;;;;29.60;nan;-24634.75;4958403;28;20633;-68
2022/07/06 09:05:17;;;;;;;10.52;6.85;;;;;;;29.42;nan;-24630.00;4943519;28;20185;-69
2022/07/06 09:07:48;;;;;;;10.27;6.68;;;;;;;29.19;nan;-24623.69;4940217;28;20315;-68
2022/07/06 09:10:16;;;;;;;10.38;6.30;;;;;;;29.13;nan;-24622.06;4931227;28;20560;-68
2022/07/06 09:12:42;;;;;;;9.77;6.13;;;;;;;28.63;nan;-24608.66;4928047;28;20566;-68
2022/07/06 09:15:08;;;;;;;10.43;6.30;;;;;;;28.63;nan;-24608.66;4943083;28;20194;-68
2022/07/06 09:17:38;;;;;;;10.45;5.95;;;;;;;28.63;nan;-24608.53;4932326;28;20188;-68
2022/07/06 09:20:08;;;;;;;10.57;6.55;;;;;;;28.82;nan;-24613.72;4935818;28;20237;-68
2022/07/06 09:22:34;;;;;;;13.95;6.15;;;;;;;28.75;nan;-24611.81;4940420;28;20185;-68
2022/07/06 09:25:18;;;;;;;9.55;6.40;;;;;;;29.08;nan;-24620.69;4938944;28;20212;-68
2022/07/06 09:27:47;;;;;;;8.43;6.03;;;;;;;28.72;nan;-24611.13;4942755;28;21521;-68
2022/07/06 09:30:14;;;;;;;11.05;6.45;;;;;;;28.88;nan;-24615.50;4946292;28;20178;-68
2022/07/06 09:32:47;;;;;;;9.65;6.53;;;;;;;28.79;nan;-24612.91;4943683;28;20194;-68
2022/07/06 09:35:24;;;;;;;9.77;6.10;;;;;;;29.22;nan;-24624.53;4935171;28;21237;-68
2022/07/06 09:38:10;;;;;;;8.98;6.22;;;;;;;29.25;nan;-24625.47;4944891;28;20264;-68
2022/07/06 09:40:38;;;;;;;9.43;5.63;;;;;;;29.54;nan;-24633.13;4941922;28;20188;-68
2022/07/06 09:43:08;;;;;;;8.77;5.38;;;;;;;29.52;nan;-24632.72;4941284;28;20181;-68
2022/07/06 09:45:36;;;;;;;10.00;5.88;;;;;;;29.81;nan;-24640.50;4940243;28;20240;-68
2022/07/06 09:48:22;;;;;;;9.98;5.53;;;;;;;29.71;nan;-24637.75;4944982;28;20244;-68
2022/07/06 09:50:53;;;;;;;7.57;5.13;;;;;;;30.14;nan;-24649.38;4948020;28;20214;-68
2022/07/06 09:53:20;;;;;;;8.00;5.82;;;;;;;30.07;nan;-24647.59;4938173;28;20186;-68
2022/07/06 09:55:47;;;;;;;8.77;5.32;;;;;;;30.53;nan;-24660.00;4939398;28;20291;-68
2022/07/06 09:58:14;;;;;;;8.52;5.57;;;;;;;30.39;nan;-24656.03;4938265;28;20182;-68
2022/07/06 10:00:40;;;;;;;7.70;5.40;;;;;;;30.54;nan;-24660.13;4933266;28;20189;-68
2022/07/06 10:03:07;;;;;;;8.02;5.28;;;;;;;31.01;nan;-24672.94;4938762;28;20227;-68
2022/07/06 10:05:33;;;;;;;9.93;5.90;;;;;;;30.79;nan;-24666.81;4940438;28;20871;-68
2022/07/06 10:08:00;;;;;;;9.45;5.25;;;;;;;31.15;nan;-24676.59;4934954;28;20197;-68
2022/07/06 10:10:29;;;;;;;8.13;5.57;;;;;;;31.58;nan;-24688.16;4937728;28;20204;-68
2022/07/06 10:12:58;;;;;;;8.27;5.43;;;;;;;31.38;nan;-24682.72;4945077;28;20687;-68
2022/07/06 10:15:31;;;;;;;8.32;5.55;;;;;;;31.34;nan;-24681.78;4937865;28;20276;-68
2022/07/06 10:17:58;;;;;;;9.38;5.55;;;;;;;31.50;nan;-24685.97;4944224;28;20197;-68
2022/07/06 10:20:27;;;;;;;7.40;5.13;;;;;;;31.65;nan;-24690.06;4948631;28;20237;-66
2022/07/06 10:22:54;;;;;;;11.75;5.90;;;;;;;31.95;nan;-24698.22;4930999;28;20272;-67
2022/07/06 10:25:21;;;;;;;8.00;4.93;;;;;;;31.82;nan;-24694.69;4931308;28;20237;-67
2022/07/06 10:27:47;;;;;;;6.95;4.65;;;;;;;32.59;nan;-24715.31;4935589;28;20213;-67
2022/07/06 10:30:15;;;;;;;8.02;5.60;;;;;;;32.87;nan;-24722.78;4937327;28;20730;-67
2022/07/06 10:32:43;;;;;;;7.43;5.43;;;;;;;33.00;nan;-24726.19;4937681;28;20675;-67
2022/07/06 10:35:09;;;;;;;9.75;5.68;;;;;;;32.20;nan;-24704.88;4943678;28;20732;-68
2022/07/06 10:37:34;;;;;;;7.70;5.30;;;;;;;31.88;nan;-24696.31;4943401;28;20189;-67
2022/07/06 10:42:51;;;;;;;8.20;5.07;;;;;;;32.09;nan;-24701.88;4937933;28;20648;-67
2022/07/06 10:45:29;;;;;;;7.65;4.95;;;;;;;32.30;nan;-24707.47;4940079;28;20177;-67
2022/07/06 10:48:10;;;;;;;7.35;4.65;;;;;;;32.46;nan;-24711.66;4940972;28;20215;-67
2022/07/06 10:50:40;;;;;;;8.65;4.97;;;;;;;32.78;nan;-24720.34;4936543;28;20184;-68
2022/07/06 10:53:14;;;;;;;8.18;5.28;;;;;;;32.75;nan;-24719.53;4944896;28;20280;-66
2022/07/06 10:55:43;;;;;;;8.38;4.95;;;;;;;32.12;nan;-24702.72;4945030;28;20184;-68
2022/07/06 10:58:08;;;;;;;8.57;4.70;;;;;;;32.12;nan;-24702.56;4947033;28;20193;-67
2022/07/06 11:00:53;;;;;;;7.78;5.05;;;;;;;32.54;nan;-24713.97;4944519;28;20568;-67
2022/07/06 11:03:33;;;;;;;10.10;5.90;;;;;;;31.71;nan;-24691.69;4942149;28;20212;-67
2022/07/06 11:06:21;;;;;;;9.43;5.65;;;;;;;30.83;nan;-24667.88;4948043;28;20189;-67
2022/07/06 11:09:02;;;;;;;11.70;5.90;;;;;;;30.54;nan;-24660.25;4946832;28;20186;-67
2022/07/06 11:11:31;;;;;;;7.88;5.43;;;;;;;30.51;nan;-24659.44;4950333;28;20673;-67
2022/07/06 11:14:03;;;;;;;8.68;5.50;;;;;;;30.01;nan;-24645.81;4937291;28;20267;-68
2022/07/06 11:16:39;;;;;;;10.05;5.82;;;;;;;29.47;nan;-24631.34;4948175;28;20169;-68
2022/07/06 11:19:11;;;;;;;8.13;5.07;;;;;;;30.56;nan;-24660.81;4945499;28;20232;-68
2022/07/06 11:21:46;;;;;;;8.52;5.10;;;;;;;31.58;nan;-24688.16;4945944;28;22043;-67
2022/07/06 11:24:20;;;;;;;8.18;5.35;;;;;;;32.27;nan;-24706.78;4944633;28;20268;-67
2022/07/06 11:26:50;;;;;;;6.40;4.68;;;;;;;31.76;nan;-24692.94;4949224;28;21704;-68
2022/07/06 11:29:18;;;;;;;8.60;5.03;;;;;;;32.21;nan;-24705.16;4944094;28;20853;-67
2022/07/06 11:31:47;;;;;;;5.50;4.25;;;;;;;32.15;nan;-24703.38;4947362;28;20201;-68
2022/07/06 11:34:21;;;;;;;4.88;3.85;;;;;;;32.08;nan;-24701.47;4940924;28;20190;-67
2022/07/06 11:36:47;;;;;;;5.80;4.35;;;;;;;32.37;nan;-24709.34;4946913;28;20184;-67
2022/07/06 11:39:14;;;;;;;5.70;4.40;;;;;;;32.77;nan;-24720.22;4943091;28;20197;-68
2022/07/06 11:41:40;;;;;;;7.10;4.78;;;;;;;32.66;nan;-24717.09;4947056;28;20271;-67
2022/07/06 11:44:05;;;;;;;5.45;4.15;;;;;;;32.26;nan;-24706.38;4937213;28;20207;-67
2022/07/06 11:46:34;;;;;;;8.88;4.45;;;;;;;31.00;nan;-24672.66;4944214;28;20213;-67
2022/07/06 11:49:09;;;;;;;6.78;4.55;;;;;;;32.12;nan;-24702.72;4945686;28;20191;-68